Terminal Aerodrome Forecast
Issued by NWS Austin/San Antonio, TX

Home | Current Version | Previous Version | Text Only | Print | Product List | Glossary On
Versions: 1 2 3 4 5 6 7 8 9 10 11 12 13 14
000
FTUS44 KEWX 020500
TAFDRT
TAF
KDRT 020523Z 0206/0306 12007KT P6SM SCT250
     FM021100 11006KT P6SM BKN012
     FM021300 12007KT P6SM BKN007
     FM021500 14010KT P6SM BKN012
     FM021700 14010KT P6SM FEW050
     FM022200 32008KT P6SM SCT050=

USA.gov is the U.S. government's official web portal to all federal, state and local government web resources and services.